sensor_id;sensor_type;location;lat;lon;timestamp;P1;durP1;ratioP1;P2;durP2;ratioP2
13051;SDS011;6592;47.484;9.726;2023-04-24T00:00:39;0.90;;;0.30;;
13051;SDS011;6592;47.484;9.726;2023-04-24T00:03:07;1.05;;;0.30;;
13051;SDS011;6592;47.484;9.726;2023-04-24T00:05:36;0.77;;;0.38;;
13051;SDS011;6592;47.484;9.726;2023-04-24T00:08:06;1.15;;;0.40;;
13051;SDS011;6592;47.484;9.726;2023-04-24T00:10:34;1.38;;;0.63;;
13051;SDS011;6592;47.484;9.726;2023-04-24T00:13:04;2.05;;;0.70;;
13051;SDS011;6592;47.484;9.726;2023-04-24T00:15:32;1.00;;;0.45;;
13051;SDS011;6592;47.484;9.726;2023-04-24T00:18:00;0.95;;;0.40;;
13051;SDS011;6592;47.484;9.726;2023-04-24T00:20:29;1.15;;;0.50;;
13051;SDS011;6592;47.484;9.726;2023-04-24T00:22:58;2.03;;;0.57;;
13051;SDS011;6592;47.484;9.726;2023-04-24T00:25:27;1.33;;;0.63;;
13051;SDS011;6592;47.484;9.726;2023-04-24T00:27:55;1.23;;;0.50;;
13051;SDS011;6592;47.484;9.726;2023-04-24T00:30:24;1.60;;;0.40;;
13051;SDS011;6592;47.484;9.726;2023-04-24T00:32:53;0.95;;;0.45;;
13051;SDS011;6592;47.484;9.726;2023-04-24T00:35:21;0.80;;;0.38;;
13051;SDS011;6592;47.484;9.726;2023-04-24T00:37:49;0.70;;;0.40;;
13051;SDS011;6592;47.484;9.726;2023-04-24T00:40:18;0.93;;;0.30;;
13051;SDS011;6592;47.484;9.726;2023-04-24T00:42:46;0.73;;;0.30;;
13051;SDS011;6592;47.484;9.726;2023-04-24T00:45:15;0.82;;;0.30;;
13051;SDS011;6592;47.484;9.726;2023-04-24T00:47:44;0.57;;;0.28;;
13051;SDS011;6592;47.484;9.726;2023-04-24T00:50:14;0.80;;;0.30;;
13051;SDS011;6592;47.484;9.726;2023-04-24T00:52:43;0.57;;;0.20;;
13051;SDS011;6592;47.484;9.726;2023-04-24T00:55:12;1.17;;;0.40;;
13051;SDS011;6592;47.484;9.726;2023-04-24T00:57:40;3.10;;;0.45;;
13051;SDS011;6592;47.484;9.726;2023-04-24T01:00:09;0.60;;;0.30;;
13051;SDS011;6592;47.484;9.726;2023-04-24T01:02:38;1.00;;;0.40;;
13051;SDS011;6592;47.484;9.726;2023-04-24T01:05:12;1.20;;;0.30;;
13051;SDS011;6592;47.484;9.726;2023-04-24T01:07:41;0.73;;;0.32;;
13051;SDS011;6592;47.484;9.726;2023-04-24T01:10:13;1.20;;;0.40;;
13051;SDS011;6592;47.484;9.726;2023-04-24T01:12:43;0.60;;;0.30;;
13051;SDS011;6592;47.484;9.726;2023-04-24T01:15:11;0.50;;;0.30;;
13051;SDS011;6592;47.484;9.726;2023-04-24T01:17:39;0.65;;;0.28;;
13051;SDS011;6592;47.484;9.726;2023-04-24T01:20:08;0.57;;;0.32;;
13051;SDS011;6592;47.484;9.726;2023-04-24T01:22:39;0.77;;;0.38;;
13051;SDS011;6592;47.484;9.726;2023-04-24T01:25:08;1.88;;;0.40;;
13051;SDS011;6592;47.484;9.726;2023-04-24T01:27:36;1.27;;;0.32;;
13051;SDS011;6592;47.484;9.726;2023-04-24T01:30:05;0.90;;;0.30;;
13051;SDS011;6592;47.484;9.726;2023-04-24T01:32:34;1.02;;;0.40;;
13051;SDS011;6592;47.484;9.726;2023-04-24T01:35:04;1.77;;;0.47;;
13051;SDS011;6592;47.484;9.726;2023-04-24T01:37:33;0.98;;;0.40;;
13051;SDS011;6592;47.484;9.726;2023-04-24T01:40:05;1.00;;;0.40;;
13051;SDS011;6592;47.484;9.726;2023-04-24T01:42:35;1.20;;;0.43;;
13051;SDS011;6592;47.484;9.726;2023-04-24T01:45:04;0.73;;;0.20;;
13051;SDS011;6592;47.484;9.726;2023-04-24T01:47:33;1.10;;;0.40;;
13051;SDS011;6592;47.484;9.726;2023-04-24T01:50:01;1.85;;;0.28;;
13051;SDS011;6592;47.484;9.726;2023-04-24T01:52:30;1.30;;;0.50;;
13051;SDS011;6592;47.484;9.726;2023-04-24T01:54:59;0.70;;;0.35;;
13051;SDS011;6592;47.484;9.726;2023-04-24T01:57:31;0.47;;;0.17;;
13051;SDS011;6592;47.484;9.726;2023-04-24T02:00:00;0.70;;;0.28;;
13051;SDS011;6592;47.484;9.726;2023-04-24T02:02:30;0.52;;;0.30;;
13051;SDS011;6592;47.484;9.726;2023-04-24T02:04:59;1.88;;;0.20;;
13051;SDS011;6592;47.484;9.726;2023-04-24T02:07:27;0.30;;;0.20;;
13051;SDS011;6592;47.484;9.726;2023-04-24T02:09:55;1.30;;;0.28;;
13051;SDS011;6592;47.484;9.726;2023-04-24T02:12:23;0.70;;;0.30;;
13051;SDS011;6592;47.484;9.726;2023-04-24T02:14:53;0.52;;;0.10;;
13051;SDS011;6592;47.484;9.726;2023-04-24T02:17:21;0.10;;;0.10;;
13051;SDS011;6592;47.484;9.726;2023-04-24T02:19:49;0.52;;;0.10;;
13051;SDS011;6592;47.484;9.726;2023-04-24T02:22:18;0.30;;;0.13;;
13051;SDS011;6592;47.484;9.726;2023-04-24T02:24:46;0.40;;;0.10;;
13051;SDS011;6592;47.484;9.726;2023-04-24T02:27:14;0.40;;;0.15;;
13051;SDS011;6592;47.484;9.726;2023-04-24T02:29:42;0.95;;;0.22;;
13051;SDS011;6592;47.484;9.726;2023-04-24T02:32:12;0.68;;;0.20;;
13051;SDS011;6592;47.484;9.726;2023-04-24T02:34:42;0.50;;;0.13;;
13051;SDS011;6592;47.484;9.726;2023-04-24T02:37:10;0.50;;;0.20;;
13051;SDS011;6592;47.484;9.726;2023-04-24T02:39:38;0.93;;;0.20;;
13051;SDS011;6592;47.484;9.726;2023-04-24T02:42:07;0.45;;;0.20;;
13051;SDS011;6592;47.484;9.726;2023-04-24T02:44:35;0.38;;;0.20;;
13051;SDS011;6592;47.484;9.726;2023-04-24T02:47:03;0.82;;;0.30;;
13051;SDS011;6592;47.484;9.726;2023-04-24T02:49:33;0.20;;;0.10;;
13051;SDS011;6592;47.484;9.726;2023-04-24T02:52:01;0.60;;;0.25;;
13051;SDS011;6592;47.484;9.726;2023-04-24T02:54:29;0.82;;;0.20;;
13051;SDS011;6592;47.484;9.726;2023-04-24T02:56:57;0.45;;;0.10;;
13051;SDS011;6592;47.484;9.726;2023-04-24T02:59:27;0.32;;;0.15;;
13051;SDS011;6592;47.484;9.726;2023-04-24T03:01:55;0.88;;;0.30;;
13051;SDS011;6592;47.484;9.726;2023-04-24T03:04:23;0.55;;;0.10;;
13051;SDS011;6592;47.484;9.726;2023-04-24T03:06:53;0.30;;;0.10;;
13051;SDS011;6592;47.484;9.726;2023-04-24T03:09:22;0.40;;;0.20;;
13051;SDS011;6592;47.484;9.726;2023-04-24T03:11:50;0.22;;;0.10;;
13051;SDS011;6592;47.484;9.726;2023-04-24T03:14:19;0.43;;;0.15;;
13051;SDS011;6592;47.484;9.726;2023-04-24T03:16:47;0.70;;;0.20;;
13051;SDS011;6592;47.484;9.726;2023-04-24T03:19:16;0.20;;;0.10;;
13051;SDS011;6592;47.484;9.726;2023-04-24T03:21:44;1.85;;;0.22;;
13051;SDS011;6592;47.484;9.726;2023-04-24T03:24:14;1.20;;;0.10;;
13051;SDS011;6592;47.484;9.726;2023-04-24T03:26:42;1.00;;;0.20;;
13051;SDS011;6592;47.484;9.726;2023-04-24T03:29:10;0.55;;;0.20;;
13051;SDS011;6592;47.484;9.726;2023-04-24T03:31:38;2.10;;;0.30;;
13051;SDS011;6592;47.484;9.726;2023-04-24T03:34:07;0.40;;;0.10;;
13051;SDS011;6592;47.484;9.726;2023-04-24T03:36:35;0.70;;;0.30;;
13051;SDS011;6592;47.484;9.726;2023-04-24T03:39:03;0.77;;;0.30;;
13051;SDS011;6592;47.484;9.726;2023-04-24T03:41:33;0.50;;;0.20;;
13051;SDS011;6592;47.484;9.726;2023-04-24T03:44:01;1.05;;;0.20;;
13051;SDS011;6592;47.484;9.726;2023-04-24T03:46:29;1.17;;;0.63;;
13051;SDS011;6592;47.484;9.726;2023-04-24T03:48:58;6.75;;;0.40;;
13051;SDS011;6592;47.484;9.726;2023-04-24T03:51:26;0.30;;;0.20;;
13051;SDS011;6592;47.484;9.726;2023-04-24T03:53:56;0.25;;;0.17;;
13051;SDS011;6592;47.484;9.726;2023-04-24T03:56:24;0.45;;;0.20;;
13051;SDS011;6592;47.484;9.726;2023-04-24T03:58:54;3.72;;;0.45;;
13051;SDS011;6592;47.484;9.726;2023-04-24T04:01:22;0.63;;;0.30;;
13051;SDS011;6592;47.484;9.726;2023-04-24T04:03:51;0.30;;;0.20;;
13051;SDS011;6592;47.484;9.726;2023-04-24T04:06:19;1.27;;;0.43;;
13051;SDS011;6592;47.484;9.726;2023-04-24T04:08:47;0.65;;;0.25;;
13051;SDS011;6592;47.484;9.726;2023-04-24T04:11:16;0.73;;;0.35;;
13051;SDS011;6592;47.484;9.726;2023-04-24T04:13:44;1.30;;;0.40;;
13051;SDS011;6592;47.484;9.726;2023-04-24T04:16:15;1.20;;;0.40;;
13051;SDS011;6592;47.484;9.726;2023-04-24T04:18:44;0.77;;;0.35;;
13051;SDS011;6592;47.484;9.726;2023-04-24T04:21:12;1.38;;;0.50;;
13051;SDS011;6592;47.484;9.726;2023-04-24T04:23:40;2.33;;;0.30;;
13051;SDS011;6592;47.484;9.726;2023-04-24T04:26:09;1.70;;;0.50;;
13051;SDS011;6592;47.484;9.726;2023-04-24T04:28:38;0.98;;;0.35;;
13051;SDS011;6592;47.484;9.726;2023-04-24T04:31:07;1.77;;;0.30;;
13051;SDS011;6592;47.484;9.726;2023-04-24T04:33:37;0.85;;;0.40;;
13051;SDS011;6592;47.484;9.726;2023-04-24T04:36:05;0.93;;;0.40;;
13051;SDS011;6592;47.484;9.726;2023-04-24T04:38:35;1.42;;;0.38;;
13051;SDS011;6592;47.484;9.726;2023-04-24T04:41:03;0.52;;;0.30;;
13051;SDS011;6592;47.484;9.726;2023-04-24T04:43:31;1.27;;;0.73;;
13051;SDS011;6592;47.484;9.726;2023-04-24T04:46:00;1.80;;;0.70;;
13051;SDS011;6592;47.484;9.726;2023-04-24T04:48:29;1.50;;;0.40;;
13051;SDS011;6592;47.484;9.726;2023-04-24T04:50:59;0.55;;;0.40;;
13051;SDS011;6592;47.484;9.726;2023-04-24T04:53:27;2.28;;;0.40;;
13051;SDS011;6592;47.484;9.726;2023-04-24T04:55:55;1.15;;;0.40;;
13051;SDS011;6592;47.484;9.726;2023-04-24T04:58:24;0.50;;;0.28;;
13051;SDS011;6592;47.484;9.726;2023-04-24T05:00:52;0.57;;;0.20;;
13051;SDS011;6592;47.484;9.726;2023-04-24T05:03:20;0.68;;;0.30;;
13051;SDS011;6592;47.484;9.726;2023-04-24T05:05:49;1.08;;;0.30;;
13051;SDS011;6592;47.484;9.726;2023-04-24T05:08:18;0.98;;;0.20;;
13051;SDS011;6592;47.484;9.726;2023-04-24T05:10:53;1.35;;;0.40;;
13051;SDS011;6592;47.484;9.726;2023-04-24T05:13:21;1.27;;;0.60;;
13051;SDS011;6592;47.484;9.726;2023-04-24T05:16:05;1.83;;;0.50;;
13051;SDS011;6592;47.484;9.726;2023-04-24T05:18:33;1.02;;;0.40;;
13051;SDS011;6592;47.484;9.726;2023-04-24T05:21:02;1.30;;;0.45;;
13051;SDS011;6592;47.484;9.726;2023-04-24T05:23:31;0.95;;;0.30;;
13051;SDS011;6592;47.484;9.726;2023-04-24T05:25:59;2.08;;;0.40;;
13051;SDS011;6592;47.484;9.726;2023-04-24T05:30:59;2.05;;;0.50;;
13051;SDS011;6592;47.484;9.726;2023-04-24T05:33:28;1.85;;;0.52;;
13051;SDS011;6592;47.484;9.726;2023-04-24T05:35:56;2.67;;;0.60;;
13051;SDS011;6592;47.484;9.726;2023-04-24T05:38:25;1.95;;;0.50;;
13051;SDS011;6592;47.484;9.726;2023-04-24T05:40:54;1.17;;;0.50;;
13051;SDS011;6592;47.484;9.726;2023-04-24T05:43:23;1.15;;;0.45;;
13051;SDS011;6592;47.484;9.726;2023-04-24T05:45:51;0.77;;;0.40;;
13051;SDS011;6592;47.484;9.726;2023-04-24T05:48:19;1.08;;;0.40;;
13051;SDS011;6592;47.484;9.726;2023-04-24T05:50:48;1.05;;;0.40;;
13051;SDS011;6592;47.484;9.726;2023-04-24T05:53:17;0.73;;;0.30;;
13051;SDS011;6592;47.484;9.726;2023-04-24T05:55:45;0.85;;;0.30;;
13051;SDS011;6592;47.484;9.726;2023-04-24T05:58:15;0.60;;;0.40;;
13051;SDS011;6592;47.484;9.726;2023-04-24T06:00:43;1.88;;;0.50;;
13051;SDS011;6592;47.484;9.726;2023-04-24T06:03:13;0.80;;;0.40;;
13051;SDS011;6592;47.484;9.726;2023-04-24T06:05:42;1.17;;;0.32;;
13051;SDS011;6592;47.484;9.726;2023-04-24T06:08:10;0.95;;;0.40;;
13051;SDS011;6592;47.484;9.726;2023-04-24T06:10:39;1.10;;;0.40;;
13051;SDS011;6592;47.484;9.726;2023-04-24T06:13:07;6.45;;;0.47;;
13051;SDS011;6592;47.484;9.726;2023-04-24T06:15:37;1.42;;;0.50;;
13051;SDS011;6592;47.484;9.726;2023-04-24T06:18:05;2.03;;;0.70;;
13051;SDS011;6592;47.484;9.726;2023-04-24T06:20:36;2.08;;;0.60;;
13051;SDS011;6592;47.484;9.726;2023-04-24T06:23:04;1.52;;;0.60;;
13051;SDS011;6592;47.484;9.726;2023-04-24T06:25:32;1.23;;;0.50;;
13051;SDS011;6592;47.484;9.726;2023-04-24T06:28:01;2.33;;;0.93;;
13051;SDS011;6592;47.484;9.726;2023-04-24T06:30:29;4.60;;;0.52;;
13051;SDS011;6592;47.484;9.726;2023-04-24T06:32:59;1.50;;;0.52;;
13051;SDS011;6592;47.484;9.726;2023-04-24T06:35:45;5.70;;;1.55;;
13051;SDS011;6592;47.484;9.726;2023-04-24T06:38:13;3.00;;;1.23;;
13051;SDS011;6592;47.484;9.726;2023-04-24T06:40:42;4.30;;;1.10;;
13051;SDS011;6592;47.484;9.726;2023-04-24T06:43:11;5.45;;;2.17;;
13051;SDS011;6592;47.484;9.726;2023-04-24T06:45:39;1.80;;;0.80;;
13051;SDS011;6592;47.484;9.726;2023-04-24T06:48:09;1.50;;;0.80;;
13051;SDS011;6592;47.484;9.726;2023-04-24T06:50:37;2.85;;;1.25;;
13051;SDS011;6592;47.484;9.726;2023-04-24T06:53:05;2.92;;;1.15;;
13051;SDS011;6592;47.484;9.726;2023-04-24T06:55:35;2.50;;;1.30;;
13051;SDS011;6592;47.484;9.726;2023-04-24T06:58:03;3.38;;;1.30;;
13051;SDS011;6592;47.484;9.726;2023-04-24T07:00:32;3.50;;;1.30;;
13051;SDS011;6592;47.484;9.726;2023-04-24T07:03:00;4.05;;;1.20;;
13051;SDS011;6592;47.484;9.726;2023-04-24T07:05:30;2.72;;;1.10;;
13051;SDS011;6592;47.484;9.726;2023-04-24T07:08:00;3.58;;;1.25;;
13051;SDS011;6592;47.484;9.726;2023-04-24T07:10:28;2.00;;;0.95;;
13051;SDS011;6592;47.484;9.726;2023-04-24T07:12:57;6.20;;;1.00;;
13051;SDS011;6592;47.484;9.726;2023-04-24T07:15:25;3.30;;;1.17;;
13051;SDS011;6592;47.484;9.726;2023-04-24T07:17:53;3.65;;;0.93;;
13051;SDS011;6592;47.484;9.726;2023-04-24T07:20:21;2.35;;;1.08;;
13051;SDS011;6592;47.484;9.726;2023-04-24T07:22:51;6.40;;;1.20;;
13051;SDS011;6592;47.484;9.726;2023-04-24T07:25:20;4.03;;;1.02;;
13051;SDS011;6592;47.484;9.726;2023-04-24T07:27:48;1.73;;;0.85;;
13051;SDS011;6592;47.484;9.726;2023-04-24T07:30:16;2.50;;;1.00;;
13051;SDS011;6592;47.484;9.726;2023-04-24T07:32:44;3.80;;;1.17;;
13051;SDS011;6592;47.484;9.726;2023-04-24T07:35:13;2.88;;;1.13;;
13051;SDS011;6592;47.484;9.726;2023-04-24T07:37:41;2.45;;;1.00;;
13051;SDS011;6592;47.484;9.726;2023-04-24T07:40:13;2.08;;;1.00;;
13051;SDS011;6592;47.484;9.726;2023-04-24T07:42:41;2.75;;;0.85;;
13051;SDS011;6592;47.484;9.726;2023-04-24T07:45:10;2.10;;;0.82;;
13051;SDS011;6592;47.484;9.726;2023-04-24T07:47:38;2.28;;;0.82;;
13051;SDS011;6592;47.484;9.726;2023-04-24T07:50:07;1.83;;;0.82;;
13051;SDS011;6592;47.484;9.726;2023-04-24T07:52:35;1.80;;;0.70;;
13051;SDS011;6592;47.484;9.726;2023-04-24T07:55:03;2.17;;;1.00;;
13051;SDS011;6592;47.484;9.726;2023-04-24T07:57:34;4.55;;;0.90;;
13051;SDS011;6592;47.484;9.726;2023-04-24T08:00:04;1.90;;;0.80;;
13051;SDS011;6592;47.484;9.726;2023-04-24T08:02:33;2.53;;;1.10;;
13051;SDS011;6592;47.484;9.726;2023-04-24T08:05:01;1.92;;;0.80;;
13051;SDS011;6592;47.484;9.726;2023-04-24T08:07:30;2.20;;;0.85;;
13051;SDS011;6592;47.484;9.726;2023-04-24T08:09:59;1.95;;;0.70;;
13051;SDS011;6592;47.484;9.726;2023-04-24T08:12:27;2.85;;;1.10;;
13051;SDS011;6592;47.484;9.726;2023-04-24T08:14:57;1.65;;;0.50;;
13051;SDS011;6592;47.484;9.726;2023-04-24T08:17:26;1.83;;;0.32;;
13051;SDS011;6592;47.484;9.726;2023-04-24T08:19:54;0.95;;;0.50;;
13051;SDS011;6592;47.484;9.726;2023-04-24T08:22:27;1.90;;;0.70;;
13051;SDS011;6592;47.484;9.726;2023-04-24T08:24:56;1.27;;;0.50;;
13051;SDS011;6592;47.484;9.726;2023-04-24T08:27:25;2.08;;;0.40;;
13051;SDS011;6592;47.484;9.726;2023-04-24T08:29:54;1.10;;;0.40;;
13051;SDS011;6592;47.484;9.726;2023-04-24T08:32:24;1.40;;;0.40;;
13051;SDS011;6592;47.484;9.726;2023-04-24T08:37:22;0.28;;;0.17;;
13051;SDS011;6592;47.484;9.726;2023-04-24T08:39:51;2.28;;;0.40;;
13051;SDS011;6592;47.484;9.726;2023-04-24T08:42:20;0.77;;;0.30;;
13051;SDS011;6592;47.484;9.726;2023-04-24T08:44:48;0.47;;;0.20;;
13051;SDS011;6592;47.484;9.726;2023-04-24T08:47:17;1.33;;;0.68;;
13051;SDS011;6592;47.484;9.726;2023-04-24T08:49:48;0.95;;;0.50;;
13051;SDS011;6592;47.484;9.726;2023-04-24T08:52:17;1.85;;;0.57;;
13051;SDS011;6592;47.484;9.726;2023-04-24T08:54:46;1.83;;;0.50;;
13051;SDS011;6592;47.484;9.726;2023-04-24T08:57:15;1.20;;;0.70;;
13051;SDS011;6592;47.484;9.726;2023-04-24T08:59:44;1.10;;;0.60;;
13051;SDS011;6592;47.484;9.726;2023-04-24T09:02:14;1.27;;;0.68;;
13051;SDS011;6592;47.484;9.726;2023-04-24T09:04:43;1.30;;;0.55;;
13051;SDS011;6592;47.484;9.726;2023-04-24T09:07:15;1.70;;;0.70;;
13051;SDS011;6592;47.484;9.726;2023-04-24T09:09:45;2.25;;;0.90;;
13051;SDS011;6592;47.484;9.726;2023-04-24T09:12:13;2.67;;;1.20;;
13051;SDS011;6592;47.484;9.726;2023-04-24T09:14:42;2.47;;;1.15;;
13051;SDS011;6592;47.484;9.726;2023-04-24T09:17:11;2.38;;;0.90;;
13051;SDS011;6592;47.484;9.726;2023-04-24T09:19:40;2.67;;;0.70;;
13051;SDS011;6592;47.484;9.726;2023-04-24T09:22:09;3.05;;;1.10;;
13051;SDS011;6592;47.484;9.726;2023-04-24T09:24:39;1.83;;;0.90;;
13051;SDS011;6592;47.484;9.726;2023-04-24T09:27:07;2.45;;;1.10;;
13051;SDS011;6592;47.484;9.726;2023-04-24T09:29:38;2.33;;;1.00;;
13051;SDS011;6592;47.484;9.726;2023-04-24T09:32:17;3.30;;;1.00;;
13051;SDS011;6592;47.484;9.726;2023-04-24T09:34:48;4.03;;;1.30;;
13051;SDS011;6592;47.484;9.726;2023-04-24T09:37:27;3.85;;;1.30;;
13051;SDS011;6592;47.484;9.726;2023-04-24T09:40:10;2.88;;;1.00;;
13051;SDS011;6592;47.484;9.726;2023-04-24T09:42:40;2.97;;;1.30;;
13051;SDS011;6592;47.484;9.726;2023-04-24T09:45:11;2.25;;;1.30;;
13051;SDS011;6592;47.484;9.726;2023-04-24T09:47:41;4.18;;;1.15;;
13051;SDS011;6592;47.484;9.726;2023-04-24T09:50:13;3.00;;;1.20;;
13051;SDS011;6592;47.484;9.726;2023-04-24T09:52:45;4.55;;;1.30;;
13051;SDS011;6592;47.484;9.726;2023-04-24T09:55:18;2.38;;;1.17;;
13051;SDS011;6592;47.484;9.726;2023-04-24T09:57:48;2.92;;;1.17;;
13051;SDS011;6592;47.484;9.726;2023-04-24T10:00:18;4.10;;;1.10;;
13051;SDS011;6592;47.484;9.726;2023-04-24T10:02:49;2.88;;;1.30;;
13051;SDS011;6592;47.484;9.726;2023-04-24T10:05:21;3.03;;;1.30;;
13051;SDS011;6592;47.484;9.726;2023-04-24T10:07:51;2.85;;;1.30;;
13051;SDS011;6592;47.484;9.726;2023-04-24T10:10:24;4.05;;;1.48;;
13051;SDS011;6592;47.484;9.726;2023-04-24T10:12:54;3.83;;;1.48;;
13051;SDS011;6592;47.484;9.726;2023-04-24T10:15:23;2.55;;;1.38;;
13051;SDS011;6592;47.484;9.726;2023-04-24T10:17:53;3.10;;;1.30;;
13051;SDS011;6592;47.484;9.726;2023-04-24T10:20:22;4.22;;;1.38;;
13051;SDS011;6592;47.484;9.726;2023-04-24T10:22:52;6.03;;;1.60;;
13051;SDS011;6592;47.484;9.726;2023-04-24T10:25:21;2.80;;;1.30;;
13051;SDS011;6592;47.484;9.726;2023-04-24T10:27:53;3.47;;;1.60;;
13051;SDS011;6592;47.484;9.726;2023-04-24T10:30:23;4.10;;;1.60;;
13051;SDS011;6592;47.484;9.726;2023-04-24T10:32:52;4.80;;;1.67;;
13051;SDS011;6592;47.484;9.726;2023-04-24T10:35:20;2.33;;;1.33;;
13051;SDS011;6592;47.484;9.726;2023-04-24T10:37:54;2.80;;;1.35;;
13051;SDS011;6592;47.484;9.726;2023-04-24T10:42:55;3.70;;;1.42;;
13051;SDS011;6592;47.484;9.726;2023-04-24T10:45:24;2.63;;;1.30;;
13051;SDS011;6592;47.484;9.726;2023-04-24T10:47:54;2.78;;;1.60;;
13051;SDS011;6592;47.484;9.726;2023-04-24T10:50:25;3.15;;;1.50;;
13051;SDS011;6592;47.484;9.726;2023-04-24T10:53:04;3.30;;;1.80;;
13051;SDS011;6592;47.484;9.726;2023-04-24T10:55:44;5.20;;;1.40;;
13051;SDS011;6592;47.484;9.726;2023-04-24T10:58:15;5.30;;;1.73;;
13051;SDS011;6592;47.484;9.726;2023-04-24T11:00:44;3.55;;;1.80;;
13051;SDS011;6592;47.484;9.726;2023-04-24T11:03:25;3.25;;;1.55;;
13051;SDS011;6592;47.484;9.726;2023-04-24T11:05:58;3.05;;;1.73;;
13051;SDS011;6592;47.484;9.726;2023-04-24T11:08:29;3.17;;;1.80;;
13051;SDS011;6592;47.484;9.726;2023-04-24T11:11:00;5.30;;;2.08;;
13051;SDS011;6592;47.484;9.726;2023-04-24T11:16:35;3.47;;;1.55;;
13051;SDS011;6592;47.484;9.726;2023-04-24T11:19:07;4.47;;;1.88;;
13051;SDS011;6592;47.484;9.726;2023-04-24T11:21:41;3.25;;;1.75;;
13051;SDS011;6592;47.484;9.726;2023-04-24T11:24:23;2.72;;;1.50;;
13051;SDS011;6592;47.484;9.726;2023-04-24T11:26:53;4.45;;;1.48;;
13051;SDS011;6592;47.484;9.726;2023-04-24T11:29:24;3.13;;;1.50;;
13051;SDS011;6592;47.484;9.726;2023-04-24T11:34:54;4.05;;;1.55;;
13051;SDS011;6592;47.484;9.726;2023-04-24T11:37:24;3.10;;;1.65;;
13051;SDS011;6592;47.484;9.726;2023-04-24T11:39:57;3.90;;;2.20;;
13051;SDS011;6592;47.484;9.726;2023-04-24T11:42:27;3.60;;;1.90;;
13051;SDS011;6592;47.484;9.726;2023-04-24T11:44:57;2.40;;;1.58;;
13051;SDS011;6592;47.484;9.726;2023-04-24T11:47:29;5.20;;;1.67;;
13051;SDS011;6592;47.484;9.726;2023-04-24T11:50:00;3.88;;;1.67;;
13051;SDS011;6592;47.484;9.726;2023-04-24T11:52:30;4.28;;;1.80;;
13051;SDS011;6592;47.484;9.726;2023-04-24T11:54:58;4.40;;;1.80;;
13051;SDS011;6592;47.484;9.726;2023-04-24T11:57:27;3.50;;;1.55;;
13051;SDS011;6592;47.484;9.726;2023-04-24T12:00:01;3.65;;;1.70;;
13051;SDS011;6592;47.484;9.726;2023-04-24T12:02:32;4.60;;;1.60;;
13051;SDS011;6592;47.484;9.726;2023-04-24T12:05:04;3.67;;;1.50;;
13051;SDS011;6592;47.484;9.726;2023-04-24T12:07:39;3.42;;;1.83;;
13051;SDS011;6592;47.484;9.726;2023-04-24T12:10:09;4.55;;;1.60;;
13051;SDS011;6592;47.484;9.726;2023-04-24T12:12:38;2.90;;;1.38;;
13051;SDS011;6592;47.484;9.726;2023-04-24T12:15:08;4.35;;;1.60;;
13051;SDS011;6592;47.484;9.726;2023-04-24T12:17:40;2.75;;;1.50;;
13051;SDS011;6592;47.484;9.726;2023-04-24T12:20:10;3.78;;;1.25;;
13051;SDS011;6592;47.484;9.726;2023-04-24T12:22:45;4.75;;;1.58;;
13051;SDS011;6592;47.484;9.726;2023-04-24T12:25:14;4.50;;;1.50;;
13051;SDS011;6592;47.484;9.726;2023-04-24T12:27:43;3.95;;;1.60;;
13051;SDS011;6592;47.484;9.726;2023-04-24T12:30:13;4.35;;;1.45;;
13051;SDS011;6592;47.484;9.726;2023-04-24T12:32:43;2.90;;;1.42;;
13051;SDS011;6592;47.484;9.726;2023-04-24T12:35:13;3.35;;;1.35;;
13051;SDS011;6592;47.484;9.726;2023-04-24T12:37:42;2.80;;;1.45;;
13051;SDS011;6592;47.484;9.726;2023-04-24T12:40:13;2.80;;;1.20;;
13051;SDS011;6592;47.484;9.726;2023-04-24T12:42:42;4.40;;;1.50;;
13051;SDS011;6592;47.484;9.726;2023-04-24T12:45:14;3.72;;;1.50;;
13051;SDS011;6592;47.484;9.726;2023-04-24T12:47:43;2.35;;;1.27;;
13051;SDS011;6592;47.484;9.726;2023-04-24T12:50:13;2.90;;;1.20;;
13051;SDS011;6592;47.484;9.726;2023-04-24T12:52:42;3.75;;;1.20;;
13051;SDS011;6592;47.484;9.726;2023-04-24T12:55:12;1.90;;;1.10;;
13051;SDS011;6592;47.484;9.726;2023-04-24T12:57:40;2.67;;;1.15;;
13051;SDS011;6592;47.484;9.726;2023-04-24T13:00:09;2.40;;;1.60;;
13051;SDS011;6592;47.484;9.726;2023-04-24T13:02:39;3.95;;;1.60;;
13051;SDS011;6592;47.484;9.726;2023-04-24T13:05:08;4.88;;;1.30;;
13051;SDS011;6592;47.484;9.726;2023-04-24T13:07:37;2.97;;;1.60;;
13051;SDS011;6592;47.484;9.726;2023-04-24T13:10:06;3.25;;;1.45;;
13051;SDS011;6592;47.484;9.726;2023-04-24T13:12:35;4.35;;;1.50;;
13051;SDS011;6592;47.484;9.726;2023-04-24T13:15:05;3.13;;;1.40;;
13051;SDS011;6592;47.484;9.726;2023-04-24T13:17:34;3.53;;;1.42;;
13051;SDS011;6592;47.484;9.726;2023-04-24T13:20:04;3.17;;;1.60;;
13051;SDS011;6592;47.484;9.726;2023-04-24T13:22:33;3.10;;;1.13;;
13051;SDS011;6592;47.484;9.726;2023-04-24T13:25:03;2.38;;;1.30;;
13051;SDS011;6592;47.484;9.726;2023-04-24T13:27:33;3.63;;;1.45;;
13051;SDS011;6592;47.484;9.726;2023-04-24T13:30:02;2.92;;;1.55;;
13051;SDS011;6592;47.484;9.726;2023-04-24T13:32:30;3.50;;;1.45;;
13051;SDS011;6592;47.484;9.726;2023-04-24T13:35:01;4.30;;;1.30;;
13051;SDS011;6592;47.484;9.726;2023-04-24T13:37:31;5.57;;;1.70;;
13051;SDS011;6592;47.484;9.726;2023-04-24T13:39:59;3.60;;;1.20;;
13051;SDS011;6592;47.484;9.726;2023-04-24T13:42:28;5.35;;;1.58;;
13051;SDS011;6592;47.484;9.726;2023-04-24T13:44:56;3.50;;;1.65;;
13051;SDS011;6592;47.484;9.726;2023-04-24T13:47:25;3.30;;;1.63;;
13051;SDS011;6592;47.484;9.726;2023-04-24T13:49:53;2.50;;;1.30;;
13051;SDS011;6592;47.484;9.726;2023-04-24T13:52:21;5.85;;;1.50;;
13051;SDS011;6592;47.484;9.726;2023-04-24T13:54:51;4.53;;;1.90;;
13051;SDS011;6592;47.484;9.726;2023-04-24T13:57:19;2.72;;;1.40;;
13051;SDS011;6592;47.484;9.726;2023-04-24T13:59:48;3.28;;;1.52;;
13051;SDS011;6592;47.484;9.726;2023-04-24T14:02:16;6.82;;;2.42;;
13051;SDS011;6592;47.484;9.726;2023-04-24T14:04:44;3.92;;;1.40;;
13051;SDS011;6592;47.484;9.726;2023-04-24T14:07:14;5.72;;;1.50;;
13051;SDS011;6592;47.484;9.726;2023-04-24T14:09:42;4.07;;;1.35;;
13051;SDS011;6592;47.484;9.726;2023-04-24T14:12:12;2.40;;;1.30;;
13051;SDS011;6592;47.484;9.726;2023-04-24T14:14:42;3.58;;;1.60;;
13051;SDS011;6592;47.484;9.726;2023-04-24T14:17:11;2.80;;;1.42;;
13051;SDS011;6592;47.484;9.726;2023-04-24T14:19:39;2.70;;;1.48;;
13051;SDS011;6592;47.484;9.726;2023-04-24T14:22:07;2.75;;;1.35;;
13051;SDS011;6592;47.484;9.726;2023-04-24T14:24:35;3.00;;;1.30;;
13051;SDS011;6592;47.484;9.726;2023-04-24T14:27:03;4.10;;;1.65;;
13051;SDS011;6592;47.484;9.726;2023-04-24T14:29:33;4.97;;;1.30;;
13051;SDS011;6592;47.484;9.726;2023-04-24T14:32:01;2.95;;;1.48;;
13051;SDS011;6592;47.484;9.726;2023-04-24T14:34:29;3.38;;;1.80;;
13051;SDS011;6592;47.484;9.726;2023-04-24T14:36:58;2.80;;;1.58;;
13051;SDS011;6592;47.484;9.726;2023-04-24T14:39:26;4.38;;;1.90;;
13051;SDS011;6592;47.484;9.726;2023-04-24T14:41:54;3.15;;;1.77;;
13051;SDS011;6592;47.484;9.726;2023-04-24T14:44:23;3.75;;;1.85;;
13051;SDS011;6592;47.484;9.726;2023-04-24T14:46:52;3.88;;;1.38;;
13051;SDS011;6592;47.484;9.726;2023-04-24T14:49:21;3.90;;;1.90;;
13051;SDS011;6592;47.484;9.726;2023-04-24T14:51:49;3.10;;;1.52;;
13051;SDS011;6592;47.484;9.726;2023-04-24T14:54:17;2.58;;;1.40;;
13051;SDS011;6592;47.484;9.726;2023-04-24T14:56:46;4.43;;;1.90;;
13051;SDS011;6592;47.484;9.726;2023-04-24T14:59:14;3.78;;;1.73;;
13051;SDS011;6592;47.484;9.726;2023-04-24T15:01:42;3.25;;;1.50;;
13051;SDS011;6592;47.484;9.726;2023-04-24T15:04:12;3.78;;;1.67;;
13051;SDS011;6592;47.484;9.726;2023-04-24T15:06:40;4.00;;;1.70;;
13051;SDS011;6592;47.484;9.726;2023-04-24T15:09:08;2.85;;;1.38;;
13051;SDS011;6592;47.484;9.726;2023-04-24T15:11:36;2.88;;;1.40;;
13051;SDS011;6592;47.484;9.726;2023-04-24T15:14:05;3.30;;;1.60;;
13051;SDS011;6592;47.484;9.726;2023-04-24T15:16:34;3.17;;;1.67;;
13051;SDS011;6592;47.484;9.726;2023-04-24T15:19:02;3.95;;;1.77;;
13051;SDS011;6592;47.484;9.726;2023-04-24T15:21:32;4.15;;;1.60;;
13051;SDS011;6592;47.484;9.726;2023-04-24T15:24:00;3.00;;;1.67;;
13051;SDS011;6592;47.484;9.726;2023-04-24T15:26:28;3.05;;;1.67;;